sensor_id;sensor_type;location;lat;lon;timestamp;temperature;humidity
75865;HTU21D;64510;46.704;38.274;2023-04-24T00:00:28;7.73;97.54
75865;HTU21D;64510;46.704;38.274;2023-04-24T00:02:53;7.79;97.51
75865;HTU21D;64510;46.704;38.274;2023-04-24T00:05:22;7.82;97.50
75865;HTU21D;64510;46.704;38.274;2023-04-24T00:07:48;7.96;97.55
75865;HTU21D;64510;46.704;38.274;2023-04-24T00:10:18;8.08;97.30
75865;HTU21D;64510;46.704;38.274;2023-04-24T00:12:44;8.18;97.24
75865;HTU21D;64510;46.704;38.274;2023-04-24T00:15:10;8.27;97.39
75865;HTU21D;64510;46.704;38.274;2023-04-24T00:17:37;8.47;97.57
75865;HTU21D;64510;46.704;38.274;2023-04-24T00:20:03;8.64;97.45
75865;HTU21D;64510;46.704;38.274;2023-04-24T00:22:30;8.74;97.42
75865;HTU21D;64510;46.704;38.274;2023-04-24T00:24:57;8.81;97.32
75865;HTU21D;64510;46.704;38.274;2023-04-24T00:27:23;8.85;97.32
75865;HTU21D;64510;46.704;38.274;2023-04-24T00:29:49;8.83;97.43
75865;HTU21D;64510;46.704;38.274;2023-04-24T00:32:15;8.85;97.55
75865;HTU21D;64510;46.704;38.274;2023-04-24T00:34:41;8.89;97.61
75865;HTU21D;64510;46.704;38.274;2023-04-24T00:37:07;8.91;97.67
75865;HTU21D;64510;46.704;38.274;2023-04-24T00:39:33;8.90;97.64
75865;HTU21D;64510;46.704;38.274;2023-04-24T00:41:59;8.88;97.81
75865;HTU21D;64510;46.704;38.274;2023-04-24T00:44:27;8.92;97.93
75865;HTU21D;64510;46.704;38.274;2023-04-24T00:46:54;8.90;97.99
75865;HTU21D;64510;46.704;38.274;2023-04-24T00:49:21;8.77;98.24
75865;HTU21D;64510;46.704;38.274;2023-04-24T00:51:47;8.62;98.52
75865;HTU21D;64510;46.704;38.274;2023-04-24T00:54:15;8.48;98.76
75865;HTU21D;64510;46.704;38.274;2023-04-24T00:56:42;8.43;98.96
75865;HTU21D;64510;46.704;38.274;2023-04-24T00:59:09;8.41;99.17
75865;HTU21D;64510;46.704;38.274;2023-04-24T01:01:35;8.42;99.11
75865;HTU21D;64510;46.704;38.274;2023-04-24T01:04:02;8.42;99.06
75865;HTU21D;64510;46.704;38.274;2023-04-24T01:06:29;8.42;99.00
75865;HTU21D;64510;46.704;38.274;2023-04-24T01:08:58;8.41;98.93
75865;HTU21D;64510;46.704;38.274;2023-04-24T01:11:25;8.39;98.98
75865;HTU21D;64510;46.704;38.274;2023-04-24T01:13:52;8.41;98.97
75865;HTU21D;64510;46.704;38.274;2023-04-24T01:16:18;8.39;98.98
75865;HTU21D;64510;46.704;38.274;2023-04-24T01:18:46;8.39;99.00
75865;HTU21D;64510;46.704;38.274;2023-04-24T01:21:16;8.43;99.01
75865;HTU21D;64510;46.704;38.274;2023-04-24T01:23:45;8.45;98.97
75865;HTU21D;64510;46.704;38.274;2023-04-24T01:26:16;8.44;98.93
75865;HTU21D;64510;46.704;38.274;2023-04-24T01:28:44;8.41;98.92
75865;HTU21D;64510;46.704;38.274;2023-04-24T01:31:09;8.36;99.05
75865;HTU21D;64510;46.704;38.274;2023-04-24T01:33:35;8.30;99.07
75865;HTU21D;64510;46.704;38.274;2023-04-24T01:36:02;8.27;99.13
75865;HTU21D;64510;46.704;38.274;2023-04-24T01:38:27;8.21;99.23
75865;HTU21D;64510;46.704;38.274;2023-04-24T01:40:53;8.16;99.35
75865;HTU21D;64510;46.704;38.274;2023-04-24T01:43:19;8.11;99.45
75865;HTU21D;64510;46.704;38.274;2023-04-24T01:45:45;8.08;99.54
75865;HTU21D;64510;46.704;38.274;2023-04-24T01:48:12;8.08;99.53
75865;HTU21D;64510;46.704;38.274;2023-04-24T01:50:39;8.08;99.58
75865;HTU21D;64510;46.704;38.274;2023-04-24T01:53:05;8.09;99.55
75865;HTU21D;64510;46.704;38.274;2023-04-24T01:55:31;8.09;99.55
75865;HTU21D;64510;46.704;38.274;2023-04-24T01:57:57;8.15;99.56
75865;HTU21D;64510;46.704;38.274;2023-04-24T02:00:25;8.24;99.38
75865;HTU21D;64510;46.704;38.274;2023-04-24T02:02:52;8.30;99.32
75865;HTU21D;64510;46.704;38.274;2023-04-24T02:05:18;8.38;99.27
75865;HTU21D;64510;46.704;38.274;2023-04-24T02:07:44;8.46;99.34
75865;HTU21D;64510;46.704;38.274;2023-04-24T02:10:10;8.58;99.25
75865;HTU21D;64510;46.704;38.274;2023-04-24T02:12:41;8.71;99.18
75865;HTU21D;64510;46.704;38.274;2023-04-24T02:15:07;8.82;98.94
75865;HTU21D;64510;46.704;38.274;2023-04-24T02:17:36;8.86;98.84
75865;HTU21D;64510;46.704;38.274;2023-04-24T02:20:04;8.87;98.92
75865;HTU21D;64510;46.704;38.274;2023-04-24T02:22:30;8.92;99.06
75865;HTU21D;64510;46.704;38.274;2023-04-24T02:25:00;8.89;98.98
75865;HTU21D;64510;46.704;38.274;2023-04-24T02:27:27;8.81;99.21
75865;HTU21D;64510;46.704;38.274;2023-04-24T02:29:52;8.75;99.45
75865;HTU21D;64510;46.704;38.274;2023-04-24T02:32:18;8.77;99.67
75865;HTU21D;64510;46.704;38.274;2023-04-24T02:34:44;8.82;99.74
75865;HTU21D;64510;46.704;38.274;2023-04-24T02:37:11;8.95;99.77
75865;HTU21D;64510;46.704;38.274;2023-04-24T02:39:37;9.18;99.60
75865;HTU21D;64510;46.704;38.274;2023-04-24T02:42:03;9.44;99.55
75865;HTU21D;64510;46.704;38.274;2023-04-24T02:44:29;9.70;99.44
75865;HTU21D;64510;46.704;38.274;2023-04-24T02:46:55;10.00;99.29
75865;HTU21D;64510;46.704;38.274;2023-04-24T02:49:22;10.35;99.13
75865;HTU21D;64510;46.704;38.274;2023-04-24T02:51:48;10.66;98.80
75865;HTU21D;64510;46.704;38.274;2023-04-24T02:54:14;10.97;98.55
75865;HTU21D;64510;46.704;38.274;2023-04-24T02:56:40;11.30;98.26
75865;HTU21D;64510;46.704;38.274;2023-04-24T02:59:07;11.68;97.94
75865;HTU21D;64510;46.704;38.274;2023-04-24T03:01:33;12.03;97.55
75865;HTU21D;64510;46.704;38.274;2023-04-24T03:03:59;12.38;97.14
75865;HTU21D;64510;46.704;38.274;2023-04-24T03:06:25;12.78;96.90
75865;HTU21D;64510;46.704;38.274;2023-04-24T03:08:52;13.10;96.49
75865;HTU21D;64510;46.704;38.274;2023-04-24T03:11:19;13.35;96.30
75865;HTU21D;64510;46.704;38.274;2023-04-24T03:13:45;13.56;95.89
75865;HTU21D;64510;46.704;38.274;2023-04-24T03:16:11;13.69;95.46
75865;HTU21D;64510;46.704;38.274;2023-04-24T03:18:37;13.81;95.26
75865;HTU21D;64510;46.704;38.274;2023-04-24T03:21:04;14.09;95.01
75865;HTU21D;64510;46.704;38.274;2023-04-24T03:23:31;14.41;94.69
75865;HTU21D;64510;46.704;38.274;2023-04-24T03:25:57;14.80;94.25
75865;HTU21D;64510;46.704;38.274;2023-04-24T03:28:23;15.15;93.72
75865;HTU21D;64510;46.704;38.274;2023-04-24T03:30:59;15.46;93.12
75865;HTU21D;64510;46.704;38.274;2023-04-24T03:33:28;15.70;92.66
75865;HTU21D;64510;46.704;38.274;2023-04-24T03:36:00;15.83;91.85
75865;HTU21D;64510;46.704;38.274;2023-04-24T03:38:34;15.86;91.53
75865;HTU21D;64510;46.704;38.274;2023-04-24T03:41:15;15.82;91.01
75865;HTU21D;64510;46.704;38.274;2023-04-24T03:43:48;15.63;90.83
75865;HTU21D;64510;46.704;38.274;2023-04-24T03:46:15;15.61;90.59
75865;HTU21D;64510;46.704;38.274;2023-04-24T03:48:46;15.57;89.76
75865;HTU21D;64510;46.704;38.274;2023-04-24T03:51:15;15.54;89.80
75865;HTU21D;64510;46.704;38.274;2023-04-24T03:53:44;15.47;89.64
75865;HTU21D;64510;46.704;38.274;2023-04-24T03:56:12;15.31;89.18
75865;HTU21D;64510;46.704;38.274;2023-04-24T03:58:39;14.98;89.21
75865;HTU21D;64510;46.704;38.274;2023-04-24T04:01:05;14.64;89.60
75865;HTU21D;64510;46.704;38.274;2023-04-24T04:03:37;14.45;89.95
75865;HTU21D;64510;46.704;38.274;2023-04-24T04:06:03;14.34;89.95
75865;HTU21D;64510;46.704;38.274;2023-04-24T04:08:30;14.28;89.95
75865;HTU21D;64510;46.704;38.274;2023-04-24T04:10:56;14.24;89.68
75865;HTU21D;64510;46.704;38.274;2023-04-24T04:13:22;14.14;89.38
75865;HTU21D;64510;46.704;38.274;2023-04-24T04:15:48;14.06;89.37
75865;HTU21D;64510;46.704;38.274;2023-04-24T04:18:15;14.04;89.33
75865;HTU21D;64510;46.704;38.274;2023-04-24T04:20:41;13.96;89.07
75865;HTU21D;64510;46.704;38.274;2023-04-24T04:23:08;13.86;88.84
75865;HTU21D;64510;46.704;38.274;2023-04-24T04:25:48;14.00;88.86
75865;HTU21D;64510;46.704;38.274;2023-04-24T04:28:17;14.42;88.47
75865;HTU21D;64510;46.704;38.274;2023-04-24T04:30:47;14.71;87.72
75865;HTU21D;64510;46.704;38.274;2023-04-24T04:33:13;14.81;87.43
75865;HTU21D;64510;46.704;38.274;2023-04-24T04:35:40;15.11;86.74
75865;HTU21D;64510;46.704;38.274;2023-04-24T04:38:07;15.21;86.36
75865;HTU21D;64510;46.704;38.274;2023-04-24T04:41:01;15.06;85.76
75865;HTU21D;64510;46.704;38.274;2023-04-24T04:43:31;15.28;86.12
75865;HTU21D;64510;46.704;38.274;2023-04-24T04:45:58;15.73;85.84
75865;HTU21D;64510;46.704;38.274;2023-04-24T04:49:04;15.86;85.27
75865;HTU21D;64510;46.704;38.274;2023-04-24T04:51:30;16.08;85.00
75865;HTU21D;64510;46.704;38.274;2023-04-24T04:53:57;16.60;84.87
75865;HTU21D;64510;46.704;38.274;2023-04-24T04:56:23;17.10;83.93
75865;HTU21D;64510;46.704;38.274;2023-04-24T04:58:50;17.38;81.79
75865;HTU21D;64510;46.704;38.274;2023-04-24T05:01:17;17.65;81.47
75865;HTU21D;64510;46.704;38.274;2023-04-24T05:03:46;17.91;80.37
75865;HTU21D;64510;46.704;38.274;2023-04-24T05:06:15;18.20;79.91
75865;HTU21D;64510;46.704;38.274;2023-04-24T05:08:42;18.44;78.55
75865;HTU21D;64510;46.704;38.274;2023-04-24T05:11:14;18.52;78.73
75865;HTU21D;64510;46.704;38.274;2023-04-24T05:13:41;18.62;77.11
75865;HTU21D;64510;46.704;38.274;2023-04-24T05:16:12;18.68;76.95
75865;HTU21D;64510;46.704;38.274;2023-04-24T05:18:39;18.74;76.95
75865;HTU21D;64510;46.704;38.274;2023-04-24T05:21:07;18.74;77.00
75865;HTU21D;64510;46.704;38.274;2023-04-24T05:23:34;18.72;77.38
75865;HTU21D;64510;46.704;38.274;2023-04-24T05:26:00;18.77;77.03
75865;HTU21D;64510;46.704;38.274;2023-04-24T05:28:26;18.77;76.36
75865;HTU21D;64510;46.704;38.274;2023-04-24T05:31:03;18.72;76.18
75865;HTU21D;64510;46.704;38.274;2023-04-24T05:33:29;18.81;76.05
75865;HTU21D;64510;46.704;38.274;2023-04-24T05:35:55;18.83;76.34
75865;HTU21D;64510;46.704;38.274;2023-04-24T05:38:21;18.88;75.84
75865;HTU21D;64510;46.704;38.274;2023-04-24T05:40:47;18.91;75.45
75865;HTU21D;64510;46.704;38.274;2023-04-24T05:43:13;18.93;75.21
75865;HTU21D;64510;46.704;38.274;2023-04-24T05:45:39;18.95;75.41
75865;HTU21D;64510;46.704;38.274;2023-04-24T05:48:05;18.91;75.19
75865;HTU21D;64510;46.704;38.274;2023-04-24T05:50:32;18.89;74.95
75865;HTU21D;64510;46.704;38.274;2023-04-24T05:52:58;18.94;75.00
75865;HTU21D;64510;46.704;38.274;2023-04-24T05:55:28;18.98;75.22
75865;HTU21D;64510;46.704;38.274;2023-04-24T05:57:54;18.99;75.16
75865;HTU21D;64510;46.704;38.274;2023-04-24T06:00:20;18.93;75.31
75865;HTU21D;64510;46.704;38.274;2023-04-24T06:02:56;18.79;75.88
75865;HTU21D;64510;46.704;38.274;2023-04-24T06:05:23;18.77;75.95
75865;HTU21D;64510;46.704;38.274;2023-04-24T06:07:52;18.82;76.05
75865;HTU21D;64510;46.704;38.274;2023-04-24T06:10:20;18.81;75.89
75865;HTU21D;64510;46.704;38.274;2023-04-24T06:12:46;18.80;75.84
75865;HTU21D;64510;46.704;38.274;2023-04-24T06:15:16;18.67;75.95
75865;HTU21D;64510;46.704;38.274;2023-04-24T06:18:08;18.63;76.25
75865;HTU21D;64510;46.704;38.274;2023-04-24T06:20:36;18.71;75.67
75865;HTU21D;64510;46.704;38.274;2023-04-24T06:23:02;18.77;75.70
75865;HTU21D;64510;46.704;38.274;2023-04-24T06:25:28;18.84;75.40
75865;HTU21D;64510;46.704;38.274;2023-04-24T06:27:55;18.66;75.39
75865;HTU21D;64510;46.704;38.274;2023-04-24T06:30:21;18.57;75.39
75865;HTU21D;64510;46.704;38.274;2023-04-24T06:32:47;18.48;75.86
75865;HTU21D;64510;46.704;38.274;2023-04-24T06:35:14;18.37;76.13
75865;HTU21D;64510;46.704;38.274;2023-04-24T06:37:41;18.50;75.83
75865;HTU21D;64510;46.704;38.274;2023-04-24T06:40:08;18.64;75.49
75865;HTU21D;64510;46.704;38.274;2023-04-24T06:42:34;18.53;75.43
75865;HTU21D;64510;46.704;38.274;2023-04-24T06:45:02;18.46;75.66
75865;HTU21D;64510;46.704;38.274;2023-04-24T06:47:29;18.41;75.54
75865;HTU21D;64510;46.704;38.274;2023-04-24T06:49:55;18.51;75.76
75865;HTU21D;64510;46.704;38.274;2023-04-24T06:52:21;18.53;75.90
75865;HTU21D;64510;46.704;38.274;2023-04-24T06:54:47;18.61;76.25
75865;HTU21D;64510;46.704;38.274;2023-04-24T06:57:13;18.85;76.31
75865;HTU21D;64510;46.704;38.274;2023-04-24T06:59:39;18.97;75.67
75865;HTU21D;64510;46.704;38.274;2023-04-24T07:02:04;18.95;75.30
75865;HTU21D;64510;46.704;38.274;2023-04-24T07:04:31;18.84;74.92
75865;HTU21D;64510;46.704;38.274;2023-04-24T07:06:57;18.72;74.76
75865;HTU21D;64510;46.704;38.274;2023-04-24T07:09:25;18.53;74.99
75865;HTU21D;64510;46.704;38.274;2023-04-24T07:11:51;18.53;75.28
75865;HTU21D;64510;46.704;38.274;2023-04-24T07:14:18;18.57;75.32
75865;HTU21D;64510;46.704;38.274;2023-04-24T07:16:44;18.48;75.46
75865;HTU21D;64510;46.704;38.274;2023-04-24T07:19:11;18.42;75.92
75865;HTU21D;64510;46.704;38.274;2023-04-24T07:21:37;18.28;76.12
75865;HTU21D;64510;46.704;38.274;2023-04-24T07:24:02;18.25;76.37
75865;HTU21D;64510;46.704;38.274;2023-04-24T07:26:29;18.32;76.15
75865;HTU21D;64510;46.704;38.274;2023-04-24T07:28:55;18.03;75.97
75865;HTU21D;64510;46.704;38.274;2023-04-24T07:31:22;17.72;76.28
75865;HTU21D;64510;46.704;38.274;2023-04-24T07:33:48;17.35;76.85
75865;HTU21D;64510;46.704;38.274;2023-04-24T07:36:14;17.14;77.40
75865;HTU21D;64510;46.704;38.274;2023-04-24T07:38:47;16.92;77.62
75865;HTU21D;64510;46.704;38.274;2023-04-24T07:41:14;17.19;77.89
75865;HTU21D;64510;46.704;38.274;2023-04-24T07:43:40;17.38;77.40
75865;HTU21D;64510;46.704;38.274;2023-04-24T07:46:07;17.44;77.59
75865;HTU21D;64510;46.704;38.274;2023-04-24T07:48:33;17.65;77.09
75865;HTU21D;64510;46.704;38.274;2023-04-24T07:50:59;17.76;76.70
75865;HTU21D;64510;46.704;38.274;2023-04-24T07:53:25;17.88;76.42
75865;HTU21D;64510;46.704;38.274;2023-04-24T07:55:51;18.03;76.05
75865;HTU21D;64510;46.704;38.274;2023-04-24T07:58:17;18.20;75.59
75865;HTU21D;64510;46.704;38.274;2023-04-24T08:00:43;18.47;74.85
75865;HTU21D;64510;46.704;38.274;2023-04-24T08:03:09;18.56;74.37
75865;HTU21D;64510;46.704;38.274;2023-04-24T08:05:35;18.49;74.22
75865;HTU21D;64510;46.704;38.274;2023-04-24T08:08:01;18.32;74.70
75865;HTU21D;64510;46.704;38.274;2023-04-24T08:10:26;18.27;74.56
75865;HTU21D;64510;46.704;38.274;2023-04-24T08:12:52;18.14;74.96
75865;HTU21D;64510;46.704;38.274;2023-04-24T08:15:19;18.02;75.17
75865;HTU21D;64510;46.704;38.274;2023-04-24T08:17:44;17.96;75.13
75865;HTU21D;64510;46.704;38.274;2023-04-24T08:20:11;17.90;75.15
75865;HTU21D;64510;46.704;38.274;2023-04-24T08:22:43;17.72;75.21
75865;HTU21D;64510;46.704;38.274;2023-04-24T08:25:10;17.45;75.57
75865;HTU21D;64510;46.704;38.274;2023-04-24T08:27:36;17.22;76.12
75865;HTU21D;64510;46.704;38.274;2023-04-24T08:30:03;17.03;76.55
75865;HTU21D;64510;46.704;38.274;2023-04-24T08:32:29;16.88;76.92
75865;HTU21D;64510;46.704;38.274;2023-04-24T08:34:56;16.71;77.25
75865;HTU21D;64510;46.704;38.274;2023-04-24T08:37:23;16.62;77.62
75865;HTU21D;64510;46.704;38.274;2023-04-24T08:39:50;16.56;78.03
75865;HTU21D;64510;46.704;38.274;2023-04-24T08:42:17;16.46;78.34
75865;HTU21D;64510;46.704;38.274;2023-04-24T08:44:44;16.45;78.61
75865;HTU21D;64510;46.704;38.274;2023-04-24T08:47:11;16.42;78.60
75865;HTU21D;64510;46.704;38.274;2023-04-24T08:49:38;16.33;78.95
75865;HTU21D;64510;46.704;38.274;2023-04-24T08:52:08;16.34;79.27
75865;HTU21D;64510;46.704;38.274;2023-04-24T08:54:35;16.36;79.38
75865;HTU21D;64510;46.704;38.274;2023-04-24T08:57:02;16.36;79.72
75865;HTU21D;64510;46.704;38.274;2023-04-24T08:59:30;16.34;79.88
75865;HTU21D;64510;46.704;38.274;2023-04-24T09:01:56;16.40;79.68
75865;HTU21D;64510;46.704;38.274;2023-04-24T09:04:24;16.43;79.66
75865;HTU21D;64510;46.704;38.274;2023-04-24T09:06:57;16.32;80.00
75865;HTU21D;64510;46.704;38.274;2023-04-24T09:09:24;16.26;80.27
75865;HTU21D;64510;46.704;38.274;2023-04-24T09:11:51;16.28;80.49
75865;HTU21D;64510;46.704;38.274;2023-04-24T09:14:20;16.36;80.63
75865;HTU21D;64510;46.704;38.274;2023-04-24T09:16:47;16.55;80.53
75865;HTU21D;64510;46.704;38.274;2023-04-24T09:19:13;16.73;80.02
75865;HTU21D;64510;46.704;38.274;2023-04-24T09:21:39;16.81;79.84
75865;HTU21D;64510;46.704;38.274;2023-04-24T09:24:17;16.80;79.81
75865;HTU21D;64510;46.704;38.274;2023-04-24T09:26:44;17.01;79.48
75865;HTU21D;64510;46.704;38.274;2023-04-24T09:29:18;17.15;79.10
75865;HTU21D;64510;46.704;38.274;2023-04-24T09:31:45;17.08;79.08
75865;HTU21D;64510;46.704;38.274;2023-04-24T09:34:12;16.88;79.67
75865;HTU21D;64510;46.704;38.274;2023-04-24T09:36:42;16.87;79.84
75865;HTU21D;64510;46.704;38.274;2023-04-24T09:39:12;16.88;79.73
75865;HTU21D;64510;46.704;38.274;2023-04-24T09:41:45;16.85;79.88
75865;HTU21D;64510;46.704;38.274;2023-04-24T09:44:19;16.95;79.87
75865;HTU21D;64510;46.704;38.274;2023-04-24T09:49:22;16.91;80.01
75865;HTU21D;64510;46.704;38.274;2023-04-24T09:51:49;16.93;80.14
75865;HTU21D;64510;46.704;38.274;2023-04-24T09:54:17;16.96;80.09
75865;HTU21D;64510;46.704;38.274;2023-04-24T09:56:45;16.88;80.30
75865;HTU21D;64510;46.704;38.274;2023-04-24T09:59:16;16.88;80.40
75865;HTU21D;64510;46.704;38.274;2023-04-24T10:01:42;17.02;80.30
75865;HTU21D;64510;46.704;38.274;2023-04-24T10:06:43;17.43;79.37
75865;HTU21D;64510;46.704;38.274;2023-04-24T10:09:09;17.55;78.99
75865;HTU21D;64510;46.704;38.274;2023-04-24T10:11:42;17.76;78.71
75865;HTU21D;64510;46.704;38.274;2023-04-24T10:14:11;18.00;78.30
75865;HTU21D;64510;46.704;38.274;2023-04-24T10:16:39;18.21;77.72
75865;HTU21D;64510;46.704;38.274;2023-04-24T10:19:06;18.24;77.41
75865;HTU21D;64510;46.704;38.274;2023-04-24T10:21:32;18.19;77.30
75865;HTU21D;64510;46.704;38.274;2023-04-24T10:24:00;18.12;77.37
75865;HTU21D;64510;46.704;38.274;2023-04-24T10:26:29;18.12;77.41
75865;HTU21D;64510;46.704;38.274;2023-04-24T10:28:57;18.07;77.36
75865;HTU21D;64510;46.704;38.274;2023-04-24T10:31:24;17.97;77.44
75865;HTU21D;64510;46.704;38.274;2023-04-24T10:33:52;17.97;77.44
75865;HTU21D;64510;46.704;38.274;2023-04-24T10:36:22;18.05;77.28
75865;HTU21D;64510;46.704;38.274;2023-04-24T10:38:49;18.09;77.12
75865;HTU21D;64510;46.704;38.274;2023-04-24T10:41:17;18.09;77.02
75865;HTU21D;64510;46.704;38.274;2023-04-24T10:44:06;18.04;77.05
75865;HTU21D;64510;46.704;38.274;2023-04-24T10:46:33;17.96;77.36
75865;HTU21D;64510;46.704;38.274;2023-04-24T10:48:59;17.94;77.42
75865;HTU21D;64510;46.704;38.274;2023-04-24T10:51:47;17.89;77.48
75865;HTU21D;64510;46.704;38.274;2023-04-24T10:54:27;17.87;77.68
75865;HTU21D;64510;46.704;38.274;2023-04-24T10:57:25;18.03;77.63
75865;HTU21D;64510;46.704;38.274;2023-04-24T10:59:40;18.15;77.23
75865;HTU21D;64510;46.704;38.274;2023-04-24T11:02:08;18.25;76.76
75865;HTU21D;64510;46.704;38.274;2023-04-24T11:04:34;18.29;76.39
75865;HTU21D;64510;46.704;38.274;2023-04-24T11:07:01;18.30;76.42
75865;HTU21D;64510;46.704;38.274;2023-04-24T11:09:30;18.36;76.21
75865;HTU21D;64510;46.704;38.274;2023-04-24T11:12:05;18.41;75.72
75865;HTU21D;64510;46.704;38.274;2023-04-24T11:20:04;18.03;75.99
75865;HTU21D;64510;46.704;38.274;2023-04-24T11:22:36;17.85;76.50
75865;HTU21D;64510;46.704;38.274;2023-04-24T11:25:03;17.77;76.75
75865;HTU21D;64510;46.704;38.274;2023-04-24T11:30:06;17.38;77.34
75865;HTU21D;64510;46.704;38.274;2023-04-24T11:37:49;16.75;79.48
75865;HTU21D;64510;46.704;38.274;2023-04-24T11:40:17;16.66;79.72
75865;HTU21D;64510;46.704;38.274;2023-04-24T11:42:47;16.50;80.13
75865;HTU21D;64510;46.704;38.274;2023-04-24T11:47:41;15.82;82.21
75865;HTU21D;64510;46.704;38.274;2023-04-24T11:50:09;15.63;82.82
75865;HTU21D;64510;46.704;38.274;2023-04-24T11:52:40;15.49;83.61
75865;HTU21D;64510;46.704;38.274;2023-04-24T11:55:12;15.36;84.14
75865;HTU21D;64510;46.704;38.274;2023-04-24T11:57:50;15.21;84.95
75865;HTU21D;64510;46.704;38.274;2023-04-24T12:00:20;15.13;85.79
75865;HTU21D;64510;46.704;38.274;2023-04-24T12:02:47;15.10;86.14
75865;HTU21D;64510;46.704;38.274;2023-04-24T12:05:27;15.07;86.71
75865;HTU21D;64510;46.704;38.274;2023-04-24T12:07:53;15.07;87.24
75865;HTU21D;64510;46.704;38.274;2023-04-24T12:10:21;15.09;87.68
75865;HTU21D;64510;46.704;38.274;2023-04-24T12:12:47;15.15;87.95
75865;HTU21D;64510;46.704;38.274;2023-04-24T12:15:16;15.23;87.86
75865;HTU21D;64510;46.704;38.274;2023-04-24T12:17:42;15.32;87.94
75865;HTU21D;64510;46.704;38.274;2023-04-24T12:20:09;15.45;87.92
75865;HTU21D;64510;46.704;38.274;2023-04-24T12:22:52;15.55;88.00
75865;HTU21D;64510;46.704;38.274;2023-04-24T12:25:21;15.63;87.76
75865;HTU21D;64510;46.704;38.274;2023-04-24T12:28:08;15.67;87.76
75865;HTU21D;64510;46.704;38.274;2023-04-24T12:30:44;15.74;87.84
75865;HTU21D;64510;46.704;38.274;2023-04-24T12:33:10;15.73;87.82
75865;HTU21D;64510;46.704;38.274;2023-04-24T12:35:36;15.71;88.24
75865;HTU21D;64510;46.704;38.274;2023-04-24T12:38:10;15.70;88.96
75865;HTU21D;64510;46.704;38.274;2023-04-24T12:40:36;15.69;88.92
75865;HTU21D;64510;46.704;38.274;2023-04-24T12:43:16;15.70;89.14
75865;HTU21D;64510;46.704;38.274;2023-04-24T12:45:42;15.69;89.02
75865;HTU21D;64510;46.704;38.274;2023-04-24T12:48:08;15.70;89.19
75865;HTU21D;64510;46.704;38.274;2023-04-24T12:50:33;15.70;89.21
75865;HTU21D;64510;46.704;38.274;2023-04-24T12:53:00;15.70;89.21
75865;HTU21D;64510;46.704;38.274;2023-04-24T12:55:25;15.71;89.19
75865;HTU21D;64510;46.704;38.274;2023-04-24T12:57:51;15.72;89.27
75865;HTU21D;64510;46.704;38.274;2023-04-24T13:00:19;15.68;89.57
75865;HTU21D;64510;46.704;38.274;2023-04-24T13:02:44;15.54;89.83
75865;HTU21D;64510;46.704;38.274;2023-04-24T13:05:10;15.22;90.96
75865;HTU21D;64510;46.704;38.274;2023-04-24T13:07:37;14.89;92.07
75865;HTU21D;64510;46.704;38.274;2023-04-24T13:10:03;14.65;92.85
75865;HTU21D;64510;46.704;38.274;2023-04-24T13:12:29;14.51;93.50
75865;HTU21D;64510;46.704;38.274;2023-04-24T13:14:55;14.40;93.96
75865;HTU21D;64510;46.704;38.274;2023-04-24T13:17:21;14.33;94.56
75865;HTU21D;64510;46.704;38.274;2023-04-24T13:19:50;14.26;95.02
75865;HTU21D;64510;46.704;38.274;2023-04-24T13:22:17;14.18;95.37
75865;HTU21D;64510;46.704;38.274;2023-04-24T13:24:46;14.07;95.75
75865;HTU21D;64510;46.704;38.274;2023-04-24T13:27:15;14.01;96.19
75865;HTU21D;64510;46.704;38.274;2023-04-24T13:29:41;13.99;96.76
75865;HTU21D;64510;46.704;38.274;2023-04-24T13:32:08;13.96;96.83
75865;HTU21D;64510;46.704;38.274;2023-04-24T13:34:34;13.96;97.32
75865;HTU21D;64510;46.704;38.274;2023-04-24T13:37:03;13.90;97.29
75865;HTU21D;64510;46.704;38.274;2023-04-24T13:39:30;13.78;97.61
75865;HTU21D;64510;46.704;38.274;2023-04-24T13:41:57;13.73;97.63
75865;HTU21D;64510;46.704;38.274;2023-04-24T13:44:23;13.69;97.97
75865;HTU21D;64510;46.704;38.274;2023-04-24T13:46:52;13.64;98.00
75865;HTU21D;64510;46.704;38.274;2023-04-24T13:49:20;13.53;97.76
75865;HTU21D;64510;46.704;38.274;2023-04-24T13:51:46;13.46;97.80
75865;HTU21D;64510;46.704;38.274;2023-04-24T13:54:13;13.41;97.93
75865;HTU21D;64510;46.704;38.274;2023-04-24T13:56:39;13.38;98.18
75865;HTU21D;64510;46.704;38.274;2023-04-24T13:59:06;13.36;98.12
75865;HTU21D;64510;46.704;38.274;2023-04-24T14:01:32;13.37;98.16
75865;HTU21D;64510;46.704;38.274;2023-04-24T14:03:58;13.37;98.14
75865;HTU21D;64510;46.704;38.274;2023-04-24T14:06:23;13.37;98.18
75865;HTU21D;64510;46.704;38.274;2023-04-24T14:08:50;13.39;98.18
75865;HTU21D;64510;46.704;38.274;2023-04-24T14:11:17;13.41;98.19
75865;HTU21D;64510;46.704;38.274;2023-04-24T14:13:43;13.38;98.13
75865;HTU21D;64510;46.704;38.274;2023-04-24T14:16:10;13.39;98.19
75865;HTU21D;64510;46.704;38.274;2023-04-24T14:18:36;13.34;98.43
75865;HTU21D;64510;46.704;38.274;2023-04-24T14:21:02;13.30;98.59
75865;HTU21D;64510;46.704;38.274;2023-04-24T14:23:29;13.24;98.97
75865;HTU21D;64510;46.704;38.274;2023-04-24T14:25:55;13.24;99.17
75865;HTU21D;64510;46.704;38.274;2023-04-24T14:28:21;13.24;99.29
75865;HTU21D;64510;46.704;38.274;2023-04-24T14:30:48;13.22;99.47
75865;HTU21D;64510;46.704;38.274;2023-04-24T14:33:14;13.18;99.75
75865;HTU21D;64510;46.704;38.274;2023-04-24T14:35:40;13.15;99.64
75865;HTU21D;64510;46.704;38.274;2023-04-24T14:38:08;13.10;99.95
75865;HTU21D;64510;46.704;38.274;2023-04-24T14:40:34;13.10;99.87
75865;HTU21D;64510;46.704;38.274;2023-04-24T14:43:00;13.07;99.86
75865;HTU21D;64510;46.704;38.274;2023-04-24T14:45:26;13.06;99.90
75865;HTU21D;64510;46.704;38.274;2023-04-24T14:47:53;13.05;99.94
75865;HTU21D;64510;46.704;38.274;2023-04-24T14:50:19;13.08;99.97
75865;HTU21D;64510;46.704;38.274;2023-04-24T14:52:45;13.09;100.29
75865;HTU21D;64510;46.704;38.274;2023-04-24T14:55:12;13.10;100.11
75865;HTU21D;64510;46.704;38.274;2023-04-24T14:57:38;13.12;100.12
75865;HTU21D;64510;46.704;38.274;2023-04-24T15:00:08;13.14;100.25
75865;HTU21D;64510;46.704;38.274;2023-04-24T15:02:35;13.14;100.38
75865;HTU21D;64510;46.704;38.274;2023-04-24T15:05:06;13.14;100.45
75865;HTU21D;64510;46.704;38.274;2023-04-24T15:07:32;13.15;100.51
75865;HTU21D;64510;46.704;38.274;2023-04-24T15:09:58;13.16;100.68
75865;HTU21D;64510;46.704;38.274;2023-04-24T15:12:24;13.14;100.67
75865;HTU21D;64510;46.704;38.274;2023-04-24T15:14:50;13.11;100.78
75865;HTU21D;64510;46.704;38.274;2023-04-24T15:17:16;13.07;100.90
75865;HTU21D;64510;46.704;38.274;2023-04-24T15:19:42;13.06;101.03
75865;HTU21D;64510;46.704;38.274;2023-04-24T15:22:09;13.06;101.17
75865;HTU21D;64510;46.704;38.274;2023-04-24T15:24:35;13.05;101.18
75865;HTU21D;64510;46.704;38.274;2023-04-24T15:27:01;13.05;101.15